Date,TemperatureHighF,TemperatureAvgF,TemperatureLowF,DewpointHighF,DewpointAvgF,DewpointLowF,HumidityHigh,HumidityAvg,HumidityLow,PressureMaxIn,PressureMinIn,WindSpeedMaxMPH,WindSpeedAvgMPH,GustSpeedMaxMPH,PrecipitationSumIn
2013-1-3,31,22,16,26,18,13,89,84,71,0.00,40.00,0,0,4,0.10
2013-1-4,18,18,17,15,14,14,89,88,85,0.00,40.00,0,0,0,0.00
2013-1-9,34,34,34,29,29,29,82,82,82,0.00,40.00,3,3,0,0.00
2013-1-10,31,25,19,15,13,11,71,62,51,0.00,40.00,3,2,11,0.00
2013-1-11,30,20,13,16,12,10,86,71,46,0.00,40.00,1,0,7,0.00
2013-1-12,24,16,11,8,7,3,80,67,47,0.00,40.00,2,0,7,0.01
2013-1-13,20,12,8,9,7,4,87,78,61,0.00,40.00,0,0,5,0.01
2013-1-14,16,13,11,12,10,8,92,87,84,0.00,40.00,0,0,0,0.00
2013-1-15,27,17,11,23,14,8,94,87,69,0.00,40.00,1,0,7,0.00
2013-1-16,39,23,12,28,20,9,96,88,61,0.00,40.00,0,0,3,0.17
2013-1-17,33,23,20,23,19,17,92,85,66,0.00,40.00,0,0,6,0.03
2013-1-18,34,24,16,22,19,14,93,82,61,0.00,40.00,0,0,6,0.06
2013-1-19,38,29,25,25,22,19,85,75,52,0.00,40.00,0,0,4,0.04
2013-1-20,48,30,25,26,22,20,88,72,42,0.00,40.00,0,0,3,0.19
2013-1-21,40,26,21,21,18,15,85,73,47,0.00,40.00,0,0,7,0.03
2013-1-22,29,24,20,18,16,14,82,71,59,0.00,40.00,0,0,5,0.01
2013-1-23,34,28,25,27,20,13,97,74,45,0.00,40.00,1,0,6,0.00
2013-1-24,30,24,20,26,22,18,97,91,77,0.00,40.00,0,0,5,0.00
2013-1-25,33,29,27,31,29,26,99,97,89,0.00,40.00,0,0,5,0.02
2013-1-26,32,28,24,31,27,23,99,95,81,0.00,40.00,0,0,5,0.01
2013-1-27,30,23,19,26,22,16,96,92,82,0.00,40.00,0,0,4,0.01
2013-1-28,27,22,16,24,19,14,93,90,83,0.00,40.00,0,0,0,0.00
2013-1-29,36,27,22,26,21,16,97,80,47,0.00,40.00,1,0,13,0.01
2013-1-30,44,33,23,32,27,22,98,79,56,0.00,40.00,3,0,13,0.28
2013-1-31,36,33,29,29,28,24,96,83,68,0.00,40.00,0,0,4,0.06
2013-2-1,47,36,30,26,24,21,78,62,40,0.00,40.00,2,0,11,0.17
2013-2-2,45,34,29,29,24,20,82,69,52,0.00,40.00,0,0,6,0.08
2013-2-3,32,28,26,30,27,23,99,93,79,0.00,40.00,0,0,4,0.01
2013-2-4,39,30,26,30,27,24,99,90,63,0.00,40.00,0,0,5,0.01
2013-2-5,38,31,27,32,29,25,99,93,78,0.00,40.00,0,0,7,0.01
2013-2-6,37,30,27,29,25,20,99,83,64,0.00,40.00,3,0,11,0.01
2013-2-7,34,30,27,30,29,25,99,96,82,0.00,40.00,0,0,5,0.02
2013-2-8,44,29,22,31,23,19,96,79,44,0.00,40.00,1,0,11,0.20
2013-2-9,40,31,25,26,21,19,84,67,48,0.00,40.00,4,2,17,0.02
2013-2-10,44,31,23,22,20,17,94,65,39,0.00,40.00,2,0,10,0.01
2013-2-11,28,23,19,25,21,17,97,92,86,0.00,40.00,1,0,6,0.00
2013-2-12,32,27,22,29,25,20,99,93,79,0.00,40.00,1,0,5,0.00
2013-2-13,43,32,27,29,20,14,99,64,33,0.00,40.00,4,1,13,0.00
2013-2-14,37,31,25,25,20,16,77,65,52,0.00,40.00,0,0,8,0.00
2013-2-15,47,34,28,29,26,23,89,72,47,0.00,40.00,1,0,6,0.00
2013-2-16,42,33,29,31,28,18,95,81,61,0.00,40.00,1,0,12,0.00
2013-2-17,40,31,26,23,18,13,78,59,33,0.00,40.00,4,1,17,0.00
2013-2-18,33,27,21,24,20,15,93,76,58,0.00,40.00,1,0,6,0.00
2013-2-19,33,28,23,28,24,17,94,87,68,0.00,40.00,1,0,7,0.03
2013-2-20,41,26,18,21,17,12,87,71,42,0.00,40.00,1,0,7,0.11
2013-2-21,36,25,21,25,21,16,98,86,65,0.00,40.00,1,0,4,0.01
2013-2-22,29,26,23,29,25,21,99,95,88,0.00,40.00,0,0,13,0.00
2013-2-23,40,29,22,21,17,13,84,64,33,0.00,40.00,3,1,14,0.07
2013-2-24,36,27,24,25,21,15,96,79,53,0.00,40.00,1,0,6,0.03
2013-2-25,36,28,24,29,25,18,97,89,72,0.00,40.00,1,0,13,0.06
2013-2-26,40,28,23,24,20,16,85,72,48,0.00,40.00,2,0,16,0.06
2013-2-27,43,30,23,27,22,17,96,71,48,0.00,40.00,2,0,9,0.06
2013-2-28,34,31,27,32,29,26,99,93,80,0.00,40.00,0,0,4,0.06
2013-3-1,41,36,32,41,35,32,99,98,91,0.00,40.00,1,0,10,0.27
2013-3-2,45,37,34,37,34,27,99,90,73,0.00,40.00,3,0,14,0.01
2013-3-3,39,31,25,27,14,9,79,52,30,0.00,40.00,5,3,19,0.00
2013-3-4,42,30,22,18,15,11,74,56,31,0.00,40.00,3,0,8,0.00
2013-3-5,33,27,23,24,17,12,88,65,42,0.00,40.00,1,0,6,0.00
2013-3-6,33,30,28,31,27,21,99,88,73,0.00,40.00,0,0,7,0.00
2013-3-7,36,31,28,31,30,27,99,94,81,0.00,40.00,0,0,4,0.02
2013-3-8,44,31,24,34,27,23,98,88,64,0.00,40.00,0,0,6,0.24
2013-3-9,50,34,25,26,23,19,83,65,38,0.00,40.00,1,0,7,0.22
2013-3-10,39,34,29,29,26,21,93,73,55,0.00,40.00,1,0,9,0.02
2013-3-11,50,35,26,21,17,12,71,50,29,0.00,40.00,3,0,13,0.01
2013-3-12,45,35,29,36,30,19,97,83,57,0.00,40.00,2,0,9,0.04
2013-3-13,51,40,35,39,36,33,99,87,58,0.00,40.00,2,0,7,0.02
2013-3-14,50,42,38,40,37,27,99,82,55,0.00,40.00,3,0,14,0.00
2013-3-15,53,41,35,33,28,21,79,60,41,0.00,40.00,3,0,14,0.01
2013-3-16,43,36,30,32,26,21,98,69,52,0.00,40.00,3,0,14,0.01
2013-3-17,41,30,25,24,15,5,82,57,26,0.00,40.00,5,2,16,0.01
2013-3-18,41,28,22,24,13,7,69,54,34,0.00,40.00,4,1,16,0.01
2013-3-19,42,30,21,19,15,10,76,56,37,0.00,40.00,2,0,9,0.01
2013-3-20,49,34,29,38,29,16,99,85,51,0.00,40.00,4,1,16,0.43
2013-3-21,42,30,22,21,11,5,73,48,21,0.00,40.00,4,1,15,0.04
2013-3-22,40,25,20,12,9,3,67,52,21,0.00,40.00,3,0,11,0.01
2013-3-23,38,26,18,18,11,7,68,54,34,0.00,40.00,1,0,7,0.04
2013-3-24,43,28,20,17,14,12,79,57,30,0.00,40.00,2,0,9,0.08
2013-3-25,47,33,24,14,12,10,64,44,22,0.00,40.00,2,0,8,0.02
2013-3-26,56,39,29,21,16,12,57,41,24,0.00,40.00,2,0,7,0.01
2013-3-27,55,42,33,23,21,19,61,45,24,0.00,40.00,2,0,7,0.00
2013-3-28,55,44,36,37,33,29,85,67,38,0.00,40.00,2,0,7,0.02
2013-3-29,60,43,34,34,30,26,81,62,37,0.00,40.00,2,0,7,0.02
2013-3-30,62,47,38,30,27,22,61,47,28,0.00,40.00,1,0,7,0.00
2013-3-31,67,51,40,30,26,22,51,39,24,0.00,40.00,1,0,7,0.00
2013-4-1,68,53,43,33,28,25,49,39,24,0.00,40.00,1,0,8,0.00
2013-4-2,60,49,41,39,33,27,72,54,34,0.00,40.00,2,0,10,0.00
2013-4-3,55,46,37,37,33,28,82,61,40,0.00,40.00,2,0,8,0.00
2013-4-4,51,43,39,41,34,28,99,72,46,0.00,40.00,0,0,6,0.20
2013-4-5,47,41,37,40,38,33,99,90,72,0.00,40.00,2,0,9,0.15
2013-4-6,50,40,35,37,30,18,99,71,33,0.00,40.00,6,2,22,0.12
2013-4-7,38,33,31,33,30,21,99,89,63,0.00,40.00,0,0,7,0.17
2013-4-8,43,35,31,34,32,30,99,90,66,0.00,40.00,0,0,5,0.53
2013-4-9,43,35,30,34,32,29,99,88,68,0.00,40.00,1,0,7,0.05
2013-4-10,46,37,34,39,33,25,96,84,72,0.00,40.00,4,0,15,0.05
2013-4-11,47,38,32,29,23,19,71,56,37,0.00,40.00,3,1,12,0.04
2013-4-12,39,33,30,32,25,17,99,74,51,0.00,40.00,2,0,10,0.01
2013-4-13,41,32,27,32,22,15,99,69,37,0.00,40.00,2,1,12,0.13
2013-4-14,35,30,28,29,24,17,97,79,61,0.00,40.00,0,0,10,0.05
2013-4-15,38,30,22,27,18,12,94,63,42,0.00,40.00,2,1,9,0.11
2013-4-16,41,30,21,15,11,6,66,47,29,0.00,40.00,4,1,14,0.07
2013-4-17,48,36,27,20,15,9,58,42,30,0.00,40.00,3,1,9,0.01
2013-4-18,52,40,32,34,26,19,88,56,38,0.00,40.00,3,1,13,0.01
2013-4-19,46,40,36,42,38,30,99,92,81,0.00,40.00,1,0,10,0.24
2013-4-20,52,42,35,33,28,24,75,59,44,0.00,40.00,4,1,14,0.02
2013-4-21,44,36,32,26,14,6,70,43,24,0.00,40.00,4,1,12,0.00
2013-4-22,51,38,27,18,13,4,63,38,18,0.00,40.00,2,1,12,0.00
2013-4-23,47,39,33,22,16,6,53,39,29,0.00,40.00,3,0,12,0.00
2013-4-24,61,46,33,27,23,19,61,42,22,0.00,40.00,3,1,18,0.00
2013-4-25,67,52,41,29,24,15,52,36,14,0.00,40.00,4,1,12,0.00
2013-4-26,68,55,45,37,28,19,52,37,21,0.00,40.00,3,1,12,0.00
2013-4-27,62,51,42,31,25,20,52,38,26,0.00,40.00,6,1,19,0.00
2013-4-28,56,44,35,33,24,16,61,45,29,0.00,40.00,5,2,16,0.00
2013-4-29,43,36,29,27,18,9,81,50,26,0.00,40.00,6,3,27,0.00
2013-4-30,46,34,27,17,12,5,61,41,18,0.00,40.00,5,1,18,0.00
2013-5-1,53,40,29,18,12,7,46,33,19,0.00,40.00,4,1,10,0.00
2013-5-2,63,48,35,26,21,14,46,35,23,0.00,40.00,4,1,8,0.00
2013-5-3,67,52,41,32,29,26,67,44,23,0.00,40.00,3,2,14,0.00
2013-5-4,69,54,42,30,26,21,56,36,21,0.00,40.00,3,1,13,0.00
2013-5-5,75,58,45,27,25,22,43,29,15,0.00,40.00,3,1,12,0.00
2013-5-6,80,66,54,35,29,21,37,26,16,0.00,40.00,3,1,8,0.00
2013-5-7,82,66,55,40,35,30,44,33,22,0.00,40.00,3,1,8,0.00
2013-5-8,80,66,55,43,37,29,46,35,26,0.00,40.00,3,0,9,0.00
2013-5-9,84,69,57,36,29,24,34,24,13,0.00,40.00,3,1,10,0.00
2013-5-10,83,70,58,40,32,25,37,25,16,0.00,40.00,4,1,10,0.00
2013-5-11,78,67,59,43,35,27,39,31,23,0.00,40.00,2,0,9,0.00
2013-5-12,69,62,55,46,40,35,53,45,35,0.00,40.00,5,1,15,0.00
2013-5-13,61,51,37,41,36,28,80,58,41,0.00,40.00,5,2,25,0.01
2013-5-14,55,43,34,32,28,24,75,56,37,0.00,40.00,3,0,11,0.01
2013-5-15,62,49,38,33,27,22,54,44,28,0.00,40.00,3,1,10,0.00
2013-5-16,55,43,40,45,20,-100,92,75,52,0.00,40.00,1,0,9,0.18
2013-5-17,62,46,40,45,33,-100,99,80,40,0.00,40.00,3,0,6,0.48
2013-5-18,51,44,41,48,44,40,99,96,82,0.00,40.00,0,0,7,0.51
2013-5-19,60,47,40,49,44,40,99,91,56,0.00,40.00,3,0,10,0.47
2013-5-20,65,52,43,47,42,38,87,68,47,0.00,40.00,3,0,7,0.05
2013-5-21,62,49,37,53,41,37,99,75,51,0.00,40.00,3,0,9,0.35
2013-5-22,38,36,33,38,35,32,99,99,94,0.00,40.00,0,0,6,0.40
2013-5-23,50,39,32,38,34,31,99,83,52,0.00,40.00,0,0,6,0.13
2013-5-24,54,42,35,40,34,30,96,76,45,0.00,40.00,2,0,8,0.02
2013-5-25,55,42,34,40,36,33,99,82,52,0.00,40.00,2,0,7,0.01
2013-5-26,64,49,37,44,37,34,99,69,39,0.00,40.00,3,1,9,0.14
2013-5-27,55,46,42,44,42,38,99,85,56,0.00,40.00,3,1,11,0.30
2013-5-28,57,46,41,46,43,41,99,89,64,0.00,40.00,1,0,7,0.37
2013-5-29,56,45,41,43,41,38,99,85,60,0.00,40.00,1,0,8,0.12
2013-5-30,51,44,39,43,39,34,99,84,65,0.00,40.00,1,0,7,0.11
2013-5-31,59,47,39,41,35,31,81,64,41,0.00,40.00,2,0,10,0.03
2013-6-1,61,51,42,38,34,30,65,53,37,0.00,40.00,2,0,7,0.02
2013-6-2,59,48,41,44,40,36,97,76,46,0.00,40.00,3,0,12,0.14
2013-6-3,62,50,42,46,39,33,85,65,42,0.00,40.00,3,0,12,0.05
2013-6-4,70,56,43,43,39,37,85,57,30,0.00,40.00,3,0,8,0.01
2013-6-5,75,62,52,46,40,36,59,45,26,0.00,40.00,4,1,12,0.00
2013-6-6,78,65,53,41,36,28,50,35,25,0.00,40.00,3,0,8,0.00
2013-6-7,75,64,54,43,34,20,44,32,20,0.00,40.00,5,1,17,0.00
2013-6-8,75,59,47,41,33,24,50,39,25,0.00,40.00,3,1,12,0.00
2013-6-9,69,56,44,36,30,22,55,39,17,0.00,40.00,3,1,12,0.00
2013-6-10,72,59,48,39,33,28,56,38,27,0.00,40.00,3,1,10,0.00
2013-6-11,66,55,45,43,34,25,54,45,35,0.00,40.00,4,1,10,0.00
2013-6-12,63,51,39,39,32,29,71,50,33,0.00,40.00,3,1,9,0.00
2013-6-13,59,46,42,43,36,29,93,67,48,0.00,40.00,3,0,12,0.14
2013-6-14,60,48,41,46,40,34,93,74,57,0.00,40.00,2,0,8,0.06
2013-6-15,73,56,44,43,37,32,72,51,32,0.00,40.00,2,0,9,0.01
2013-6-16,77,64,52,48,38,33,57,41,26,0.00,40.00,3,0,8,0.00
2013-6-17,71,60,53,50,43,36,77,53,44,0.00,40.00,4,0,14,0.01
2013-6-18,59,52,48,48,45,39,94,77,54,0.00,40.00,0,0,8,0.13
2013-6-19,50,48,45,48,46,41,99,93,78,0.00,40.00,0,0,4,0.36
2013-6-20,46,43,41,46,42,40,99,97,90,0.00,40.00,1,0,8,0.81
2013-6-22,59,54,48,48,46,44,87,77,61,0.00,40.00,1,0,6,0.00
2013-6-23,64,55,46,50,47,42,96,75,51,0.00,40.00,0,0,5,0.03
2013-6-24,55,51,46,53,48,42,99,91,63,0.00,40.00,0,0,6,0.45
2013-6-25,57,50,46,50,46,40,98,87,66,0.00,40.00,0,0,7,0.27
2013-6-26,65,54,46,47,44,42,94,71,44,0.00,40.00,3,1,10,0.01
2013-6-27,63,56,48,50,47,42,88,74,59,0.00,40.00,0,0,6,0.01
2013-6-28,79,64,52,51,47,41,84,60,26,0.00,40.00,2,0,8,0.01
2013-6-29,77,66,61,54,48,46,61,54,34,0.00,40.00,2,0,7,0.00
2013-6-30,86,66,59,52,47,41,66,52,21,0.00,40.00,2,0,7,0.00
2013-7-1,81,69,64,49,45,41,47,41,28,0.00,40.00,0,0,4,0.00
2013-7-2,93,78,69,54,48,38,46,35,20,0.00,40.00,2,0,13,0.00
2013-7-3,84,72,61,46,38,33,50,31,18,0.00,40.00,2,1,10,0.00
2013-7-4,78,68,59,49,42,38,53,41,32,0.00,40.00,2,0,8,0.00
2013-7-5,73,61,55,51,45,36,86,56,42,0.00,40.00,3,0,8,0.02
2013-7-6,76,62,54,44,40,34,63,46,26,0.00,40.00,3,0,8,0.02
2013-7-7,79,65,54,52,41,31,83,44,29,0.00,40.00,3,1,10,0.05
2013-7-8,71,56,48,58,49,45,98,78,50,0.00,40.00,3,1,18,0.56
2013-7-9,81,67,55,54,47,42,70,51,33,0.00,40.00,3,0,10,0.12
2013-7-10,84,71,62,52,38,-100,47,33,22,0.00,40.00,4,1,13,0.00
2013-7-11,76,63,53,45,33,16,54,35,17,0.00,40.00,4,1,13,0.00
2013-7-12,66,53,45,39,31,24,53,43,32,0.00,40.00,2,0,9,0.00
2013-7-13,73,58,47,43,38,32,62,47,30,0.00,40.00,2,0,9,0.00
2013-7-14,79,64,51,44,36,29,52,36,23,0.00,40.00,3,1,9,0.00
2013-7-15,75,61,50,41,36,30,53,40,27,0.00,40.00,3,1,13,0.00
2013-7-16,79,73,64,44,42,40,42,33,26,0.00,40.00,2,1,12,0.00
2013-7-17,77,65,55,63,51,40,96,62,39,0.00,40.00,2,0,14,0.58
2013-7-18,83,69,57,56,50,45,66,51,33,0.00,40.00,1,0,12,0.36
2013-7-19,88,72,62,55,47,38,58,43,24,0.00,40.00,2,0,9,0.00
2013-7-20,87,72,62,51,37,-100,49,31,12,0.00,40.00,2,1,10,0.00
2013-7-21,87,72,62,49,40,29,44,31,24,0.00,40.00,2,0,8,0.00
2013-7-22,87,72,61,49,42,37,49,35,21,0.00,40.00,3,0,10,0.00
2013-7-23,89,72,62,50,42,33,46,35,22,0.00,40.00,2,0,7,0.00
2013-7-24,90,76,64,47,39,29,42,27,20,0.00,40.00,2,0,8,0.00
2013-7-25,90,76,64,46,36,27,35,24,14,0.00,40.00,2,1,10,0.00
2013-7-26,89,74,63,43,31,23,34,21,12,0.00,40.00,3,1,10,0.00
2013-7-27,81,68,55,38,33,28,41,28,18,0.00,40.00,3,1,14,0.00
2013-7-28,82,64,53,45,35,28,64,36,22,0.00,40.00,2,0,9,0.00
2013-7-29,76,63,54,45,39,33,50,42,29,0.00,40.00,1,0,9,0.00
2013-7-30,78,66,57,43,37,31,43,35,23,0.00,40.00,2,0,8,0.00
2013-7-31,84,69,61,46,39,32,44,33,21,0.00,40.00,1,0,7,0.00
2013-8-1,77,62,51,52,46,39,95,59,32,0.00,40.00,2,0,7,0.04
2013-8-2,64,56,50,56,52,47,99,87,70,0.00,40.00,1,0,6,0.34
2013-8-3,72,59,52,57,54,51,99,84,51,0.00,40.00,2,0,8,0.16
2013-8-4,75,59,53,58,53,49,99,82,53,0.00,40.00,2,0,9,0.57
2013-8-5,80,65,54,59,49,43,79,59,30,0.00,40.00,2,0,8,0.47
2013-8-6,83,69,59,53,47,38,59,46,32,0.00,40.00,1,0,7,0.00
2013-8-7,86,69,59,55,47,38,66,47,30,0.00,40.00,2,0,9,0.00
2013-8-8,86,72,62,53,45,38,51,39,27,0.00,40.00,2,0,7,0.00
2013-8-9,90,75,62,53,46,37,62,37,22,0.00,40.00,2,0,8,0.00
2013-8-10,87,73,62,56,49,43,69,45,28,0.00,40.00,2,0,10,0.07
2013-8-11,85,71,53,54,50,43,93,49,31,0.00,40.00,3,1,11,0.09
2013-8-12,86,70,58,53,48,43,67,47,28,0.00,40.00,2,0,8,0.09
2013-8-13,85,68,58,50,43,-100,62,44,27,0.00,40.00,2,0,8,0.00
2013-8-14,87,70,61,50,42,-100,52,37,23,0.00,40.00,2,0,8,0.00
2013-8-15,79,65,66,51,34,-100,48,38,35,0.00,40.00,2,0,9,0.00
2013-8-16,78,64,59,52,44,-100,66,53,37,0.00,40.00,1,0,6,0.00
2013-8-17,78,65,57,55,45,34,59,48,35,0.00,40.00,3,1,11,0.00
2013-8-18,80,66,53,48,42,37,61,43,25,0.00,40.00,2,1,9,0.00
2013-8-21,82,65,52,36,34,30,47,32,19,0.00,40.00,3,1,8,0.00
2013-8-22,84,70,59,41,33,28,35,27,18,0.00,40.00,2,0,6,0.00
2013-8-23,72,62,53,55,44,31,87,55,27,0.00,40.00,1,0,8,0.08
2013-8-24,74,61,54,54,48,38,79,63,41,0.00,40.00,2,0,6,0.01
2013-8-25,77,62,51,50,45,38,95,55,35,0.00,40.00,3,0,22,0.29
2013-8-26,67,54,49,53,49,45,99,84,52,0.00,40.00,2,0,18,0.29
2013-8-27,72,56,52,50,47,45,81,73,46,0.00,40.00,2,0,7,0.00
2013-8-28,81,72,64,49,46,44,49,41,33,0.00,40.00,3,1,8,0.00
2013-8-29,75,65,56,52,47,43,64,53,43,0.00,40.00,3,0,14,0.00
2013-8-30,73,62,52,49,44,39,82,54,33,0.00,40.00,4,1,11,0.00
2013-8-31,80,63,51,46,37,31,59,41,22,0.00,40.00,3,0,7,0.00
2013-9-1,89,70,57,42,37,33,47,32,15,0.00,40.00,3,0,11,0.00
2013-9-2,82,68,61,52,46,39,66,45,31,0.00,40.00,2,0,8,0.00
2013-9-3,83,68,60,55,51,48,70,56,35,0.00,40.00,3,0,10,0.00
2013-9-4,84,70,61,54,51,48,70,53,34,0.00,40.00,3,0,9,0.00
2013-9-5,79,67,61,55,52,49,69,59,44,0.00,40.00,2,0,9,0.00
2013-9-6,64,55,48,57,52,47,99,92,55,0.00,40.00,2,0,7,0.39
2013-9-7,54,51,48,52,50,46,99,97,92,0.00,40.00,0,0,3,0.15
2013-9-17,65,52,44,50,46,41,99,82,53,0.00,40.00,3,0,12,0.13
2013-9-18,47,44,43,43,39,32,97,83,60,0.00,40.00,3,0,11,0.16
2013-9-19,64,51,42,42,37,34,78,60,40,0.00,40.00,3,0,8,0.00
2013-9-20,71,55,45,40,37,35,69,52,28,0.00,40.00,2,0,7,0.00
2013-9-21,61,55,49,46,40,35,70,58,45,0.00,40.00,3,0,8,0.00
2013-9-22,52,45,40,43,41,38,99,85,69,0.00,40.00,3,0,10,0.04
2013-9-23,48,43,37,43,40,36,99,87,72,0.00,40.00,1,0,11,0.05
2013-9-24,51,42,37,43,38,34,95,85,68,0.00,40.00,1,0,8,0.07
2013-9-25,49,39,35,39,33,28,93,80,52,0.00,40.00,2,1,10,0.04
2013-9-26,55,44,37,35,31,27,92,62,41,0.00,40.00,2,0,10,0.03
2013-9-27,45,39,36,38,33,27,98,79,65,0.00,40.00,1,0,8,0.00
2013-9-28,48,43,38,48,43,38,99,99,95,0.00,40.00,5,1,22,0.77
2013-9-29,46,40,37,45,39,36,99,97,91,0.00,40.00,5,1,19,0.57
2013-9-30,45,39,33,41,34,28,98,82,66,0.00,40.00,5,2,20,0.74
2013-10-3,54,40,32,33,27,23,81,61,37,0.00,40.00,2,0,9,0.00
2013-10-4,56,42,34,33,28,24,70,59,41,0.00,40.00,2,0,7,0.00
2013-10-5,56,45,37,36,31,27,71,59,41,0.00,40.00,1,0,8,0.00
2013-10-6,62,49,40,35,31,27,62,51,33,0.00,40.00,2,0,6,0.00
2013-10-7,55,44,37,38,31,25,85,61,46,0.00,40.00,3,0,15,0.02
2013-10-8,48,38,33,38,31,26,88,78,57,0.00,40.00,3,0,8,0.04
2013-10-9,55,40,32,34,31,28,93,72,44,0.00,40.00,1,0,7,0.01
2013-10-17,57,43,34,32,28,24,72,57,37,0.00,40.00,2,0,12,0.00
2013-10-18,56,43,36,35,31,28,74,64,42,0.00,40.00,1,0,6,0.00
2013-10-19,60,46,37,38,32,29,79,61,43,0.00,40.00,1,0,12,0.00
2013-10-20,66,52,44,35,33,30,62,50,31,0.00,40.00,4,0,15,0.00
2013-10-21,64,51,46,41,37,33,72,60,42,0.00,40.00,1,0,5,0.00
2013-10-22,63,50,43,44,40,37,80,71,48,0.00,40.00,1,0,5,0.00
2013-10-23,63,50,44,41,39,33,83,69,45,0.00,40.00,1,0,6,0.00
2013-10-24,63,50,45,40,37,33,79,62,41,0.00,40.00,1,0,6,0.00
2013-10-25,61,47,42,42,39,36,87,73,45,0.00,40.00,1,0,6,0.00
2013-10-26,57,45,40,41,38,35,84,75,51,0.00,40.00,0,0,5,0.00
2013-10-27,43,38,32,40,34,20,98,84,62,0.00,40.00,3,1,13,0.14
2013-10-28,44,33,29,20,15,-100,65,50,34,0.00,40.00,4,2,16,0.01
2013-10-29,47,35,30,26,20,15,70,54,37,0.00,40.00,1,0,7,0.01
2013-10-30,38,32,28,25,23,20,76,69,57,0.00,40.00,0,0,5,0.00
2013-10-31,50,38,32,32,27,24,86,66,49,0.00,40.00,1,0,7,0.00
2013-11-1,48,38,34,33,27,22,86,65,47,0.00,40.00,2,0,6,0.00
2013-11-2,38,34,32,36,32,28,98,93,78,0.00,40.00,4,0,13,0.43
2013-11-3,33,28,24,28,21,18,92,75,56,0.00,40.00,2,0,11,0.01
2013-11-4,34,28,24,23,19,16,83,71,49,0.00,40.00,0,0,9,0.00
2013-11-5,28,26,24,25,23,17,96,88,67,0.00,40.00,0,0,5,0.00
2013-11-6,33,27,24,28,25,22,96,92,81,0.00,40.00,0,0,4,0.00
2013-11-7,34,31,27,32,30,26,97,95,91,0.00,40.00,0,0,6,0.00
2013-11-8,46,34,31,36,32,30,97,93,67,0.00,40.00,1,0,7,0.25
2013-11-9,34,31,29,31,30,28,96,94,87,0.00,40.00,0,0,2,0.02
2013-11-10,36,33,31,32,31,30,96,93,86,0.00,40.00,0,0,6,0.09
2013-11-11,41,36,32,36,33,30,94,90,76,0.00,40.00,0,0,6,0.39
2013-11-12,41,36,32,35,33,30,94,90,79,0.00,40.00,0,0,6,0.28
2013-11-13,38,34,32,34,32,30,94,91,85,0.00,40.00,0,0,5,0.06
2013-11-14,45,34,31,32,27,21,92,77,41,0.00,40.00,3,0,10,0.01
2013-11-15,31,29,28,27,26,24,91,88,76,0.00,40.00,0,0,7,0.00
2013-11-16,38,29,25,26,23,18,90,78,46,0.00,40.00,3,1,14,0.00
2013-11-17,35,29,23,30,18,-100,90,78,53,0.00,40.00,2,-50,9,0.00
2013-11-18,33,33,33,30,30,30,89,89,89,0.00,40.00,0,0,8,0.00
2013-11-19,36,30,24,21,15,4,58,52,45,0.00,40.00,4,2,17,0.00
2013-11-20,30,20,16,4,-8,-19,46,29,11,0.00,40.00,3,0,17,0.01
2013-11-21,31,21,17,6,0,-8,53,39,28,0.00,40.00,1,0,5,0.00
2013-11-22,33,24,18,8,5,-1,55,44,33,0.00,40.00,0,0,4,0.00
2013-11-23,38,28,24,15,9,4,57,45,28,0.00,40.00,0,0,5,0.00
2013-11-24,36,29,24,17,14,11,60,53,41,0.00,40.00,1,0,5,0.00
2013-11-25,43,32,29,19,16,13,59,50,33,0.00,40.00,0,0,4,0.00
2013-11-26,44,33,29,20,16,13,69,51,31,0.00,40.00,0,0,4,0.00
2013-11-27,45,33,29,23,20,18,71,60,37,0.00,40.00,0,0,4,0.00
2013-11-28,42,33,29,21,19,17,72,58,41,0.00,40.00,1,0,5,0.00
2013-11-29,29,27,25,25,23,21,91,85,71,0.00,40.00,0,0,0,0.00
2013-11-30,32,28,27,28,25,24,91,90,84,0.00,40.00,0,0,3,0.01
2013-12-1,31,29,27,29,27,24,91,91,90,0.00,40.00,0,0,3,0.01
2013-12-3,26,22,17,10,-27,-100,72,43,57,0.00,40.00,1,-333,9,0.00
2013-12-6,12,10,9,-3,-4,-4,54,52,50,0.00,40.00,1,1,0,0.00